Time;durP1;ratioP1;P1;durP2;ratioP2;P2;SDS_P1;SDS_P2;PMS_P1;PMS_P2;Temp;Humidity;BMP_temperature;BMP_pressure;BME280_temperature;BME280_humidity;BME280_pressure;Samples;Min_cycle;Max_cycle;Signal;HPM_P1;HPM_P2
2022/03/17 00:01:37;;;;;;;52.67;36.17;;;6.80;98.00;;;;;;6309552;22;19999;-65
2022/03/17 00:04:03;;;;;;;50.60;33.55;;;6.80;98.00;;;;;;6309758;22;20272;-65
2022/03/17 00:06:28;;;;;;;44.50;31.58;;;6.70;98.00;;;;;;6309638;22;20319;-65
2022/03/17 00:08:54;;;;;;;50.60;34.65;;;6.60;98.00;;;;;;6310341;22;20003;-65
2022/03/17 00:11:20;;;;;;;48.58;33.70;;;6.60;98.00;;;;;;6308360;22;19999;-65
2022/03/17 00:13:46;;;;;;;49.80;34.00;;;6.50;98.00;;;;;;6309362;22;19999;-66
2022/03/17 00:16:12;;;;;;;49.72;34.70;;;6.40;98.00;;;;;;6309786;22;20068;-67
2022/03/17 00:18:38;;;;;;;49.72;34.92;;;6.20;98.00;;;;;;6309671;22;19999;-66
2022/03/17 00:21:04;;;;;;;51.53;35.30;;;6.20;98.00;;;;;;6309869;22;20003;-67
2022/03/17 00:23:30;;;;;;;52.92;36.88;;;6.20;98.00;;;;;;6309305;22;20003;-65
2022/03/17 00:25:56;;;;;;;62.13;39.42;;;6.10;98.00;;;;;;6308283;22;20003;-65
2022/03/17 00:28:22;;;;;;;54.97;37.20;;;6.10;98.00;;;;;;6309260;22;20369;-66
2022/03/17 00:30:48;;;;;;;54.85;37.35;;;6.00;98.00;;;;;;6309402;22;20090;-66
2022/03/17 00:33:14;;;;;;;53.13;34.53;;;6.00;98.00;;;;;;6309135;22;20369;-65
2022/03/17 00:35:43;;;;;;;53.60;36.70;;;5.90;98.00;;;;;;6309694;22;20349;-65
2022/03/17 00:38:15;;;;;;;50.33;35.60;;;5.90;98.00;;;;;;6282413;22;20003;-66
2022/03/17 00:40:42;;;;;;;51.95;36.47;;;6.00;98.00;;;;;;6308007;22;20242;-65
2022/03/17 00:43:13;;;;;;;56.90;38.15;;;6.00;98.00;;;;;;6309762;22;20010;-66
2022/03/17 00:45:47;;;;;;;48.35;33.85;;;5.90;98.00;;;;;;6309610;22;20362;-66
2022/03/17 00:48:13;;;;;;;53.38;35.65;;;5.90;98.00;;;;;;6309338;22;20007;-65
2022/03/17 00:50:39;;;;;;;56.47;38.88;;;5.90;98.00;;;;;;6282244;22;19999;-66
2022/03/17 00:53:05;;;;;;;57.75;36.58;;;5.90;98.00;;;;;;6309724;22;20003;-65
2022/03/17 00:55:31;;;;;;;55.75;37.42;;;5.90;98.00;;;;;;6307999;22;19999;-66
2022/03/17 00:57:57;;;;;;;54.75;37.30;;;5.90;98.00;;;;;;6309663;22;20023;-66
2022/03/17 01:00:25;;;;;;;56.15;37.20;;;5.90;98.00;;;;;;6309375;22;20086;-66
2022/03/17 01:02:53;;;;;;;53.92;37.08;;;5.80;98.00;;;;;;6309037;22;20354;-65
2022/03/17 01:05:20;;;;;;;58.13;38.83;;;5.70;98.00;;;;;;6309048;22;20012;-66
2022/03/17 01:07:47;;;;;;;56.67;38.33;;;5.60;98.00;;;;;;6309619;22;19999;-65
2022/03/17 01:10:15;;;;;;;57.20;39.20;;;5.50;98.00;;;;;;6307767;22;20368;-65
2022/03/17 01:12:44;;;;;;;56.95;37.72;;;5.50;98.00;;;;;;6309546;22;20052;-65
2022/03/17 01:15:10;;;;;;;58.95;38.47;;;5.50;97.70;;;;;;6309408;22;20384;-64
2022/03/17 01:17:36;;;;;;;55.83;38.40;;;5.50;97.90;;;;;;6309313;22;19999;-65
2022/03/17 01:20:04;;;;;;;58.22;40.40;;;5.60;98.00;;;;;;6309701;22;20074;-65
2022/03/17 01:22:30;;;;;;;52.45;38.42;;;5.50;98.00;;;;;;6309290;22;20003;-65
2022/03/17 01:24:56;;;;;;;54.63;38.85;;;5.50;97.90;;;;;;6308006;22;20009;-65
2022/03/17 01:27:23;;;;;;;58.88;40.60;;;5.50;97.80;;;;;;6309039;22;20387;-63
2022/03/17 01:30:10;;;;;;;53.22;36.78;;;5.50;98.00;;;;;;6309079;22;20076;-65
2022/03/17 01:32:38;;;;;;;58.10;39.75;;;5.50;97.90;;;;;;6311526;22;20025;-64
2022/03/17 01:35:06;;;;;;;61.42;41.55;;;5.40;97.80;;;;;;6311391;22;20026;-65
2022/03/17 01:37:34;;;;;;;62.05;42.35;;;5.40;97.80;;;;;;6311499;22;20268;-66
2022/03/17 01:40:00;;;;;;;60.53;40.50;;;5.40;97.70;;;;;;6309908;22;20027;-66
2022/03/17 01:42:25;;;;;;;63.67;42.92;;;5.40;97.70;;;;;;6311492;22;19999;-67
2022/03/17 01:44:51;;;;;;;60.00;41.83;;;5.40;97.80;;;;;;6311189;22;20003;-67
2022/03/17 01:47:29;;;;;;;58.90;41.30;;;5.30;97.70;;;;;;6311414;22;20353;-66
2022/03/17 01:50:05;;;;;;;57.95;40.20;;;5.30;97.70;;;;;;6310799;22;20010;-66
2022/03/17 01:52:31;;;;;;;67.00;44.92;;;5.30;97.50;;;;;;6310910;22;20520;-65
2022/03/17 01:54:57;;;;;;;68.43;44.75;;;5.30;97.60;;;;;;6309848;22;19998;-65
2022/03/17 01:57:23;;;;;;;68.45;46.88;;;5.40;97.70;;;;;;6310833;22;20007;-65
2022/03/17 01:59:50;;;;;;;64.25;43.85;;;5.40;97.90;;;;;;6311340;22;20573;-65
2022/03/17 02:02:16;;;;;;;63.85;44.95;;;5.40;97.80;;;;;;6310866;22;20019;-65
2022/03/17 02:04:43;;;;;;;68.38;45.45;;;5.40;97.90;;;;;;6311130;22;20045;-64
2022/03/17 02:07:11;;;;;;;64.50;45.15;;;5.40;98.00;;;;;;6310748;22;20015;-66
2022/03/17 02:09:37;;;;;;;67.35;45.13;;;5.40;98.00;;;;;;6309443;22;20004;-65
2022/03/17 02:15:00;;;;;;;59.10;40.25;;;5.40;98.00;;;;;;6310910;22;20010;-67
2022/03/17 02:17:30;;;;;;;63.88;41.90;;;5.30;97.90;;;;;;6309875;22;20002;-65
2022/03/17 02:20:00;;;;;;;62.80;43.30;;;5.30;97.80;;;;;;6311210;22;20038;-66
2022/03/17 02:22:28;;;;;;;64.00;42.90;;;5.20;97.90;;;;;;6310582;22;19999;-65
2022/03/17 02:27:41;;;;;;;;;;;5.20;97.40;;;;;;6310987;22;20396;-66
2022/03/17 02:30:08;;;;;;;66.03;42.75;;;5.20;97.10;;;;;;6310839;22;19906;-65
2022/03/17 02:32:34;;;;;;;67.43;44.83;;;5.30;97.40;;;;;;6310869;22;20391;-65
2022/03/17 02:35:09;;;;;;;70.38;46.50;;;5.30;97.50;;;;;;6310588;22;19999;-66
2022/03/17 02:37:35;;;;;;;69.13;44.75;;;5.30;97.50;;;;;;6310397;22;19995;-65
2022/03/17 02:40:04;;;;;;;73.90;46.72;;;5.40;97.90;;;;;;6308799;22;20381;-65
2022/03/17 02:42:30;;;;;;;65.72;44.40;;;5.50;98.00;;;;;;6310378;22;20003;-65
2022/03/17 02:44:58;;;;;;;70.40;46.58;;;5.60;98.00;;;;;;6310589;22;20029;-65
2022/03/17 02:47:24;;;;;;;67.78;44.80;;;5.70;98.00;;;;;;6310022;22;20106;-66
2022/03/17 02:49:50;;;;;;;70.20;46.85;;;5.70;98.00;;;;;;6310258;22;19999;-66
2022/03/17 02:52:19;;;;;;;67.47;44.30;;;5.80;98.00;;;;;;6310045;22;20070;-66
2022/03/17 02:54:45;;;;;;;70.78;45.60;;;5.80;98.00;;;;;;6309181;22;19999;-65
2022/03/17 02:57:11;;;;;;;69.88;46.13;;;5.90;98.00;;;;;;6310431;22;20003;-66
2022/03/17 02:59:36;;;;;;;69.80;46.88;;;5.90;98.00;;;;;;6310479;22;20074;-66
2022/03/17 03:02:04;;;;;;;72.95;47.75;;;6.00;98.00;;;;;;6310219;22;20028;-65
2022/03/17 03:04:35;;;;;;;63.88;44.35;;;6.00;98.00;;;;;;6310537;22;20030;-65
2022/03/17 03:07:04;;;;;;;65.38;43.92;;;6.00;98.00;;;;;;6282857;22;20015;-65
2022/03/17 03:09:30;;;;;;;72.05;47.30;;;6.00;98.00;;;;;;6308887;22;19999;-66
2022/03/17 03:11:56;;;;;;;63.47;43.08;;;6.00;98.00;;;;;;6310404;22;20001;-66
2022/03/17 03:14:22;;;;;;;67.05;45.17;;;6.00;98.00;;;;;;6310508;22;19999;-65
2022/03/17 03:16:51;;;;;;;67.65;46.70;;;6.00;98.00;;;;;;6310498;22;19999;-66
2022/03/17 03:19:17;;;;;;;71.75;48.47;;;5.90;98.00;;;;;;6309711;22;20376;-65
2022/03/17 03:21:45;;;;;;;69.10;46.90;;;5.90;98.00;;;;;;6310447;22;20007;-66
2022/03/17 03:24:12;;;;;;;68.60;46.83;;;6.00;98.00;;;;;;6308450;22;20061;-66
2022/03/17 03:26:40;;;;;;;65.93;45.20;;;5.90;98.00;;;;;;6310439;22;20077;-66
2022/03/17 03:29:21;;;;;;;63.70;44.85;;;6.00;98.00;;;;;;6310177;22;20003;-66
2022/03/17 03:31:46;;;;;;;65.22;44.83;;;6.00;98.00;;;;;;6309785;22;20057;-65
2022/03/17 03:34:12;;;;;;;74.45;45.67;;;6.00;98.00;;;;;;6310148;22;20015;-66
2022/03/17 03:39:22;;;;;;;69.82;47.28;;;5.90;98.00;;;;;;6308371;22;20197;-66
2022/03/17 03:41:48;;;;;;;68.28;47.53;;;5.90;98.00;;;;;;6310831;22;20000;-66
2022/03/17 03:44:14;;;;;;;73.53;48.17;;;5.90;98.00;;;;;;6310982;22;20380;-66
2022/03/17 03:46:41;;;;;;;71.85;46.25;;;5.90;98.00;;;;;;6310867;22;20003;-66
2022/03/17 03:49:09;;;;;;;68.88;46.65;;;5.90;98.00;;;;;;6311064;22;20006;-65
2022/03/17 03:51:35;;;;;;;69.75;46.70;;;5.80;98.00;;;;;;6310585;22;20006;-67
2022/03/17 03:54:15;;;;;;;72.95;47.72;;;5.80;98.00;;;;;;6310823;22;20070;-67
2022/03/17 03:56:42;;;;;;;86.10;56.88;;;5.80;98.00;;;;;;6311272;22;20409;-67
2022/03/17 03:59:08;;;;;;;77.20;51.78;;;5.70;98.00;;;;;;6310610;22;20007;-67
2022/03/17 04:01:35;;;;;;;100.45;62.90;;;5.60;98.00;;;;;;6310612;22;20092;-67
2022/03/17 04:04:03;;;;;;;73.28;47.30;;;5.60;98.00;;;;;;6310244;22;20007;-66
2022/03/17 04:06:31;;;;;;;94.88;61.97;;;5.70;98.00;;;;;;6310083;22;20235;-67
2022/03/17 04:08:56;;;;;;;82.38;54.92;;;5.70;98.00;;;;;;6310341;22;20014;-67
2022/03/17 04:11:22;;;;;;;76.45;51.15;;;5.70;98.00;;;;;;6309096;22;20052;-68
2022/03/17 04:13:47;;;;;;;73.32;48.28;;;5.70;98.00;;;;;;6310556;22;19995;-66
2022/03/17 04:16:13;;;;;;;73.32;50.05;;;5.70;98.00;;;;;;6310097;22;20006;-66
2022/03/17 04:18:39;;;;;;;68.78;47.72;;;5.70;98.00;;;;;;6310355;22;20003;-65
2022/03/17 04:21:04;;;;;;;72.32;48.22;;;5.70;98.00;;;;;;6310474;22;20069;-65
2022/03/17 04:23:30;;;;;;;76.88;50.83;;;5.80;98.00;;;;;;6310633;22;20007;-65
2022/03/17 04:25:56;;;;;;;72.03;48.33;;;5.80;98.00;;;;;;6309083;22;20029;-64
2022/03/17 04:28:24;;;;;;;73.78;47.33;;;5.80;98.00;;;;;;6309945;22;20006;-65
2022/03/17 04:30:50;;;;;;;74.95;50.60;;;5.80;98.00;;;;;;6310408;22;19999;-67
2022/03/17 04:33:15;;;;;;;73.18;49.13;;;5.80;98.00;;;;;;6310675;22;20305;-67
2022/03/17 04:35:41;;;;;;;72.25;48.10;;;5.90;98.00;;;;;;6309830;22;20074;-68
2022/03/17 04:38:07;;;;;;;75.07;48.15;;;5.90;98.00;;;;;;6310368;22;20013;-65
2022/03/17 04:40:35;;;;;;;72.63;47.88;;;5.90;98.00;;;;;;6308318;22;20364;-67
2022/03/17 04:43:01;;;;;;;72.07;48.17;;;5.90;98.00;;;;;;6310399;22;20003;-66
2022/03/17 04:45:32;;;;;;;76.20;50.50;;;5.90;98.00;;;;;;6309995;22;20049;-66
2022/03/17 04:47:58;;;;;;;75.00;49.60;;;5.90;98.00;;;;;;6310152;22;20007;-66
2022/03/17 04:50:23;;;;;;;71.82;49.22;;;5.90;98.00;;;;;;6310143;22;20003;-66
2022/03/17 04:55:33;;;;;;;76.40;51.20;;;5.90;98.00;;;;;;6308493;22;20316;-66
2022/03/17 04:57:59;;;;;;;74.07;50.13;;;5.90;98.00;;;;;;6310125;22;19995;-66
2022/03/17 05:00:25;;;;;;;73.68;49.00;;;5.90;98.00;;;;;;6309724;22;20006;-66
2022/03/17 05:02:50;;;;;;;72.88;48.88;;;5.90;98.00;;;;;;6309939;22;20261;-67
2022/03/17 05:05:16;;;;;;;77.50;48.70;;;5.90;98.00;;;;;;6308680;22;20019;-68
2022/03/17 05:07:42;;;;;;;72.20;46.83;;;6.00;98.00;;;;;;6310111;22;20396;-66
2022/03/17 05:10:09;;;;;;;69.82;46.85;;;5.90;98.00;;;;;;6308473;22;20011;-67
2022/03/17 05:12:35;;;;;;;71.57;46.92;;;5.90;98.00;;;;;;6310268;22;20258;-67
2022/03/17 05:15:00;;;;;;;71.05;47.42;;;5.90;98.00;;;;;;6309691;22;20023;-67
2022/03/17 05:17:26;;;;;;;69.10;47.80;;;5.90;98.00;;;;;;6310286;22;20375;-67
2022/03/17 05:19:51;;;;;;;75.57;49.50;;;5.90;98.00;;;;;;6309922;22;20311;-67
2022/03/17 05:22:17;;;;;;;72.07;49.10;;;5.90;98.00;;;;;;6310560;22;20368;-66
2022/03/17 05:24:43;;;;;;;67.10;46.25;;;5.90;98.00;;;;;;6308321;22;20080;-67
2022/03/17 05:27:08;;;;;;;70.03;47.15;;;5.90;98.00;;;;;;6309949;22;20065;-67
2022/03/17 05:29:34;;;;;;;71.95;48.00;;;6.00;98.00;;;;;;6310153;22;20336;-67
2022/03/17 05:31:59;;;;;;;71.55;48.13;;;6.00;98.00;;;;;;6310091;22;20078;-67
2022/03/17 05:34:28;;;;;;;69.43;46.53;;;6.00;98.00;;;;;;6310141;22;20006;-67
2022/03/17 05:36:56;;;;;;;77.25;51.13;;;6.00;98.00;;;;;;6309693;22;19999;-66
2022/03/17 05:39:21;;;;;;;95.70;60.10;;;6.00;98.00;;;;;;6307328;22;20007;-67
2022/03/17 05:41:47;;;;;;;97.00;60.10;;;6.10;98.00;;;;;;6310247;22;20010;-67
2022/03/17 05:44:13;;;;;;;76.65;48.58;;;6.00;98.00;;;;;;6310260;22;20128;-67
2022/03/17 05:46:41;;;;;;;82.10;50.95;;;6.00;98.00;;;;;;6309656;22;20004;-67
2022/03/17 05:49:07;;;;;;;75.60;48.58;;;6.00;98.00;;;;;;6309598;22;20007;-67
2022/03/17 05:51:32;;;;;;;70.15;45.38;;;6.00;98.00;;;;;;6309912;22;19999;-68
2022/03/17 05:53:58;;;;;;;73.07;48.38;;;6.00;98.00;;;;;;6310227;22;20074;-66
2022/03/17 05:56:23;;;;;;;73.50;47.33;;;6.00;98.00;;;;;;6308671;22;20003;-68
2022/03/17 05:58:49;;;;;;;72.50;48.17;;;6.00;98.00;;;;;;6310034;22;20004;-66
2022/03/17 06:01:15;;;;;;;70.10;47.83;;;6.00;98.00;;;;;;6310302;22;20007;-68
2022/03/17 06:03:40;;;;;;;76.38;49.30;;;6.00;98.00;;;;;;6310168;22;20356;-67
2022/03/17 06:06:06;;;;;;;78.32;50.10;;;6.00;98.00;;;;;;6309681;22;20022;-66
2022/03/17 06:08:32;;;;;;;72.78;48.97;;;6.00;98.00;;;;;;6309071;22;20068;-66
2022/03/17 06:10:57;;;;;;;75.35;49.28;;;6.00;98.00;;;;;;6308327;22;20364;-66
2022/03/17 06:13:23;;;;;;;70.45;48.80;;;6.10;98.00;;;;;;6310021;22;20137;-68
2022/03/17 06:15:51;;;;;;;76.50;50.35;;;6.10;98.00;;;;;;6282307;22;20356;-66
2022/03/17 06:18:17;;;;;;;75.53;50.08;;;6.20;98.00;;;;;;6310940;22;20326;-67
2022/03/17 06:20:42;;;;;;;74.90;49.25;;;6.20;98.00;;;;;;6311433;22;20043;-67
2022/03/17 06:23:08;;;;;;;80.50;50.90;;;6.20;98.00;;;;;;6311283;22;20003;-66
2022/03/17 06:25:36;;;;;;;73.72;48.67;;;6.20;98.00;;;;;;6310356;22;19999;-67
2022/03/17 06:28:04;;;;;;;74.78;49.13;;;6.30;98.00;;;;;;6311467;22;20197;-65
2022/03/17 06:30:31;;;;;;;73.55;48.60;;;6.30;98.00;;;;;;6311838;22;20006;-66
2022/03/17 06:32:57;;;;;;;73.95;49.97;;;6.40;98.00;;;;;;6311029;22;20273;-66
2022/03/17 06:35:25;;;;;;;72.53;47.95;;;6.40;98.00;;;;;;6311768;22;20002;-67
2022/03/17 06:37:56;;;;;;;73.57;47.00;;;6.50;98.00;;;;;;6311315;22;20007;-67
2022/03/17 06:40:23;;;;;;;68.13;45.33;;;6.60;98.00;;;;;;6309618;22;20311;-66
2022/03/17 06:42:49;;;;;;;72.53;47.80;;;6.60;98.00;;;;;;6310636;22;20238;-66
2022/03/17 06:45:16;;;;;;;66.80;44.83;;;6.60;98.00;;;;;;6311622;22;19999;-67
2022/03/17 06:47:42;;;;;;;73.93;47.38;;;6.70;98.00;;;;;;6311616;22;20070;-67
2022/03/17 06:50:10;;;;;;;71.50;47.95;;;6.70;98.00;;;;;;6311096;22;20270;-67
2022/03/17 06:52:36;;;;;;;71.10;47.35;;;6.70;98.00;;;;;;6310327;22;20011;-67
2022/03/17 06:55:03;;;;;;;68.57;47.08;;;6.70;98.00;;;;;;6309442;22;20011;-67
2022/03/17 06:57:29;;;;;;;73.68;49.60;;;6.70;98.00;;;;;;6309731;22;20002;-67
2022/03/17 06:59:54;;;;;;;77.10;48.05;;;6.70;98.00;;;;;;6311373;22;19999;-67
2022/03/17 07:02:20;;;;;;;72.78;48.63;;;6.70;98.00;;;;;;6311503;22;19999;-67
2022/03/17 07:04:46;;;;;;;69.28;46.95;;;6.80;98.00;;;;;;6311298;22;20395;-67
2022/03/17 07:07:12;;;;;;;69.75;45.85;;;6.70;98.00;;;;;;6312001;22;20077;-67
2022/03/17 07:09:38;;;;;;;68.15;46.25;;;6.70;98.00;;;;;;6309497;22;20295;-67
2022/03/17 07:12:04;;;;;;;66.60;46.72;;;6.80;98.00;;;;;;6311397;22;20041;-66
2022/03/17 07:14:31;;;;;;;67.45;45.58;;;6.80;98.00;;;;;;6310817;22;19996;-64
2022/03/17 07:16:56;;;;;;;66.90;44.38;;;6.90;98.00;;;;;;6311373;22;20309;-64
2022/03/17 07:19:22;;;;;;;76.38;49.70;;;7.00;98.00;;;;;;6310618;22;20015;-64
2022/03/17 07:21:53;;;;;;;72.57;48.40;;;7.10;97.80;;;;;;6311262;22;20056;-64
2022/03/17 07:24:21;;;;;;;69.10;46.13;;;7.10;97.80;;;;;;6307757;22;20080;-67
2022/03/17 07:26:47;;;;;;;71.10;49.63;;;7.00;97.80;;;;;;6283568;22;20723;-66
2022/03/17 07:29:16;;;;;;;77.50;48.85;;;7.10;98.00;;;;;;6310099;22;20000;-67
2022/03/17 07:31:43;;;;;;;69.00;46.72;;;7.10;97.80;;;;;;6310729;22;20437;-66
2022/03/17 07:34:09;;;;;;;67.35;46.58;;;7.20;97.80;;;;;;6309995;22;20052;-67
2022/03/17 07:36:37;;;;;;;68.28;46.63;;;7.20;97.60;;;;;;6309636;22;20019;-67
2022/03/17 07:39:03;;;;;;;69.47;47.42;;;7.10;97.80;;;;;;6310139;22;20074;-66
2022/03/17 07:41:32;;;;;;;63.15;42.95;;;7.20;97.80;;;;;;6309335;22;20007;-66
2022/03/17 07:43:59;;;;;;;72.85;45.50;;;7.20;98.00;;;;;;6310641;22;20082;-66
2022/03/17 07:46:26;;;;;;;61.00;42.25;;;7.30;98.00;;;;;;6311669;22;20010;-66
2022/03/17 07:48:52;;;;;;;58.50;40.15;;;7.30;97.90;;;;;;6311343;22;20304;-66
2022/03/17 07:51:21;;;;;;;63.00;43.05;;;7.40;98.00;;;;;;6311749;22;19999;-67
2022/03/17 07:53:47;;;;;;;65.30;43.95;;;7.60;98.00;;;;;;6311450;22;20006;-67
2022/03/17 07:56:13;;;;;;;64.35;45.03;;;7.60;97.70;;;;;;6309980;22;20264;-67
2022/03/17 07:58:39;;;;;;;72.03;46.83;;;7.70;97.80;;;;;;6311578;22;20003;-67
2022/03/17 08:01:05;;;;;;;65.10;46.88;;;7.80;97.50;;;;;;6311276;22;20007;-67
2022/03/17 08:03:32;;;;;;;66.38;46.13;;;7.80;97.40;;;;;;6311574;22;20426;-67
2022/03/17 08:05:57;;;;;;;63.78;43.90;;;7.80;97.10;;;;;;6278771;22;20333;-67
2022/03/17 08:08:26;;;;;;;68.60;47.25;;;7.80;97.20;;;;;;6280409;22;20004;-67
2022/03/17 08:10:52;;;;;;;64.10;45.75;;;7.80;97.30;;;;;;6279027;22;20057;-66
2022/03/17 08:13:18;;;;;;;62.28;43.67;;;7.80;97.50;;;;;;6280498;22;20027;-66
2022/03/17 08:15:43;;;;;;;82.07;51.75;;;7.80;97.30;;;;;;6280185;22;20075;-66
2022/03/17 08:18:09;;;;;;;72.68;49.90;;;7.90;97.30;;;;;;6280430;22;20051;-66
2022/03/17 08:20:39;;;;;;;64.53;43.78;;;7.90;97.40;;;;;;6280042;22;20075;-67
2022/03/17 08:23:05;;;;;;;64.72;45.72;;;7.90;97.40;;;;;;6280693;22;20067;-66
2022/03/17 08:25:34;;;;;;;63.45;45.20;;;8.00;97.20;;;;;;6278684;22;20046;-66
2022/03/17 08:30:46;;;;;;;;;;;8.30;96.80;;;;;;6280839;22;20376;-67
2022/03/17 08:33:15;;;;;;;67.80;45.17;;;8.40;96.70;;;;;;6280780;22;19899;-67
2022/03/17 08:35:41;;;;;;;63.28;44.50;;;8.50;96.10;;;;;;6280748;22;20000;-67
2022/03/17 08:38:07;;;;;;;58.90;40.90;;;8.50;96.10;;;;;;6280471;22;19996;-67
2022/03/17 08:40:34;;;;;;;56.63;40.63;;;8.60;96.00;;;;;;6278095;22;20374;-67
2022/03/17 08:43:00;;;;;;;62.72;40.95;;;8.70;96.10;;;;;;6280446;22;20504;-67
2022/03/17 08:50:57;;;;;;;53.00;38.28;;;9.10;95.50;;;;;;6280221;22;20172;-67
2022/03/17 08:53:23;;;;;;;53.33;36.85;;;9.30;95.00;;;;;;6280212;22;20125;-67
2022/03/17 08:55:52;;;;;;;52.88;37.10;;;9.50;94.50;;;;;;6278583;22;20096;-67
2022/03/17 08:58:18;;;;;;;50.75;35.17;;;9.60;94.10;;;;;;6280493;22;20379;-67
2022/03/17 09:00:44;;;;;;;52.38;36.58;;;9.70;94.10;;;;;;6280032;22;20004;-67
2022/03/17 09:03:10;;;;;;;55.03;39.08;;;10.00;93.90;;;;;;6280253;22;20003;-67
2022/03/17 09:05:36;;;;;;;49.35;36.25;;;10.20;93.30;;;;;;6288388;22;20056;-67
2022/03/17 09:08:05;;;;;;;52.47;38.00;;;10.30;93.10;;;;;;6310870;22;20276;-67
2022/03/17 09:10:35;;;;;;;56.95;39.58;;;10.50;91.90;;;;;;6309036;22;20023;-67
2022/03/17 09:13:07;;;;;;;56.83;41.13;;;10.40;92.10;;;;;;6311209;22;20004;-67
2022/03/17 09:15:36;;;;;;;58.28;39.47;;;10.40;92.10;;;;;;6311116;22;20122;-67
2022/03/17 09:18:02;;;;;;;56.58;38.17;;;10.40;92.20;;;;;;6311230;22;20003;-67
2022/03/17 09:20:28;;;;;;;52.85;37.03;;;10.60;92.00;;;;;;6310613;22;20030;-67
2022/03/17 09:22:56;;;;;;;56.05;38.83;;;10.80;91.40;;;;;;6311147;22;19995;-67
2022/03/17 09:25:25;;;;;;;54.30;37.90;;;10.80;91.20;;;;;;6309400;22;20003;-68
2022/03/17 09:27:51;;;;;;;56.38;38.40;;;10.80;91.00;;;;;;6310925;22;20031;-67
2022/03/17 09:30:17;;;;;;;51.15;37.10;;;10.80;91.10;;;;;;6311201;22;20011;-66
2022/03/17 09:32:45;;;;;;;55.30;37.15;;;10.60;91.30;;;;;;6310903;22;20129;-66
2022/03/17 09:35:11;;;;;;;63.35;39.35;;;10.60;92.30;;;;;;6311235;22;20236;-66
2022/03/17 09:37:37;;;;;;;59.53;39.22;;;10.60;92.00;;;;;;6310818;22;20076;-66
2022/03/17 09:40:05;;;;;;;59.63;37.28;;;10.50;92.30;;;;;;6308872;22;20438;-66
2022/03/17 09:42:30;;;;;;;58.65;40.83;;;10.30;92.70;;;;;;6311111;22;20003;-66
2022/03/17 09:44:59;;;;;;;61.53;41.45;;;10.30;93.20;;;;;;6310762;22;20060;-66
2022/03/17 09:47:27;;;;;;;57.70;40.50;;;10.20;93.50;;;;;;6310821;22;20265;-66
2022/03/17 09:49:54;;;;;;;69.80;40.53;;;10.10;93.80;;;;;;6310800;22;20078;-67
2022/03/17 09:52:21;;;;;;;55.95;38.95;;;10.00;93.70;;;;;;6311923;22;20141;-66
2022/03/17 09:54:49;;;;;;;49.95;36.10;;;10.00;93.90;;;;;;6311497;22;20010;-66
2022/03/17 09:57:16;;;;;;;58.10;38.30;;;10.10;93.90;;;;;;6312821;22;20312;-67
2022/03/17 09:59:44;;;;;;;60.33;40.25;;;10.30;93.40;;;;;;6312692;22;20003;-67
2022/03/17 10:02:16;;;;;;;60.97;41.50;;;10.50;92.70;;;;;;6312711;22;20365;-67
2022/03/17 10:04:46;;;;;;;57.42;39.30;;;10.40;92.60;;;;;;6312603;22;20072;-67
2022/03/17 10:07:12;;;;;;;53.25;37.90;;;10.50;91.90;;;;;;6312552;22;20026;-65
2022/03/17 10:09:38;;;;;;;55.58;39.47;;;10.70;92.20;;;;;;6311225;22;20026;-65
2022/03/17 10:12:14;;;;;;;51.90;37.85;;;10.90;91.20;;;;;;6312304;22;19995;-64
2022/03/17 10:14:43;;;;;;;50.75;35.47;;;11.20;90.60;;;;;;6312596;22;20053;-65
2022/03/17 10:17:31;;;;;;;42.78;30.80;;;11.40;90.10;;;;;;6312496;22;19999;-64
2022/03/17 10:20:15;;;;;;;41.22;29.02;;;11.50;89.60;;;;;;6292276;22;20003;-67
2022/03/17 10:22:49;;;;;;;43.05;28.60;;;11.60;89.40;;;;;;6312333;22;20057;-67
2022/03/17 10:25:17;;;;;;;;;;;11.60;89.10;;;;;;6311788;22;20074;-67
2022/03/17 10:27:45;;;;;;;39.47;28.20;;;11.70;88.80;;;;;;6312506;22;20446;-66
2022/03/17 10:30:20;;;;;;;35.83;25.85;;;11.60;88.60;;;;;;6312732;22;20082;-67
2022/03/17 10:33:01;;;;;;;40.55;25.40;;;11.50;89.20;;;;;;6312373;22;20003;-67
2022/03/17 10:35:36;;;;;;;38.63;27.63;;;11.60;89.40;;;;;;6312237;22;20023;-67
2022/03/17 10:38:19;;;;;;;42.92;27.63;;;11.70;89.10;;;;;;6312332;22;20281;-66
2022/03/17 10:41:03;;;;;;;36.15;24.58;;;11.60;88.80;;;;;;6311097;22;20040;-66
2022/03/17 10:43:29;;;;;;;35.03;25.00;;;11.80;88.90;;;;;;6312461;22;20003;-67
2022/03/17 10:46:17;;;;;;;32.92;24.40;;;12.00;88.80;;;;;;6312128;22;20014;-65
2022/03/17 10:49:05;;;;;;;34.35;23.30;;;12.30;88.60;;;;;;6312394;22;20038;-66
2022/03/17 10:51:32;;;;;;;32.92;22.40;;;12.40;88.40;;;;;;6312381;22;20007;-66
2022/03/17 10:54:06;;;;;;;31.08;22.90;;;12.40;87.60;;;;;;6312416;22;19996;-67
2022/03/17 10:56:33;;;;;;;36.97;25.00;;;12.40;87.40;;;;;;6312000;22;20004;-67
2022/03/17 10:59:00;;;;;;;37.38;25.17;;;12.50;86.80;;;;;;6312155;22;20003;-68
2022/03/17 11:01:37;;;;;;;43.85;25.52;;;12.40;87.60;;;;;;6312192;22;20001;-67
2022/03/17 11:04:04;;;;;;;43.33;29.15;;;12.40;87.40;;;;;;6311523;22;20003;-65
2022/03/17 11:06:31;;;;;;;53.42;30.92;;;12.30;87.70;;;;;;6312047;22;20027;-66
2022/03/17 11:09:01;;;;;;;52.92;32.65;;;12.10;88.70;;;;;;6311963;22;20074;-66
2022/03/17 11:11:28;;;;;;;59.88;35.95;;;11.80;89.60;;;;;;6310776;22;20049;-66
2022/03/17 11:13:56;;;;;;;63.45;35.50;;;11.50;90.50;;;;;;6311932;22;20023;-66
2022/03/17 11:16:29;;;;;;;57.65;35.22;;;11.30;91.30;;;;;;6311761;22;19999;-67
2022/03/17 11:18:56;;;;;;;57.20;36.92;;;11.10;91.50;;;;;;6311902;22;20007;-66
2022/03/17 11:21:28;;;;;;;63.30;39.05;;;10.90;92.30;;;;;;6312013;22;20007;-66
2022/03/17 11:24:07;;;;;;;73.05;43.78;;;10.80;92.60;;;;;;6312133;22;20238;-66
2022/03/17 11:26:38;;;;;;;82.30;47.92;;;10.60;93.20;;;;;;6312267;22;20034;-67
2022/03/17 11:29:08;;;;;;;72.70;46.00;;;10.60;93.20;;;;;;6311811;22;20003;-66
2022/03/17 11:32:32;;;;;;;70.95;45.65;;;10.50;93.60;;;;;;6311804;22;20126;-66
2022/03/17 11:35:17;;;;;;;59.40;41.88;;;10.30;94.10;;;;;;6161814;23;20010;-66
2022/03/17 11:37:43;;;;;;;54.70;38.10;;;10.30;94.30;;;;;;6187271;23;20005;-68
2022/03/17 11:40:14;;;;;;;53.08;37.10;;;10.30;95.10;;;;;;6277690;22;20238;-66
2022/03/17 11:42:49;;;;;;;59.33;38.92;;;10.20;94.90;;;;;;6311808;22;20002;-65
2022/03/17 11:45:15;;;;;;;53.00;32.97;;;10.00;94.70;;;;;;6311752;22;20002;-67
2022/03/17 11:47:53;;;;;;;50.78;35.58;;;10.00;95.10;;;;;;6311644;22;19996;-67
2022/03/17 11:50:39;;;;;;;49.78;33.10;;;10.00;94.80;;;;;;6311392;22;20074;-67
2022/03/17 11:53:17;;;;;;;47.30;31.20;;;10.00;94.90;;;;;;6311784;22;20324;-66
2022/03/17 11:55:46;;;;;;;43.97;31.40;;;10.10;94.90;;;;;;6309911;22;20392;-66
2022/03/17 11:58:43;;;;;;;53.67;33.53;;;10.10;95.40;;;;;;6311789;22;19992;-66
2022/03/17 12:01:27;;;;;;;45.72;29.80;;;10.10;95.00;;;;;;6311592;22;20002;-67
2022/03/17 12:03:59;;;;;;;50.13;32.83;;;10.10;95.30;;;;;;6311619;22;20002;-67
2022/03/17 12:06:26;;;;;;;48.50;31.17;;;10.20;94.90;;;;;;6311201;22;20008;-67
2022/03/17 12:09:01;;;;;;;49.85;31.80;;;10.20;95.00;;;;;;6311355;22;20361;-66
2022/03/17 12:11:47;;;;;;;43.90;29.95;;;10.30;94.70;;;;;;6310279;22;20383;-66
2022/03/17 12:14:17;;;;;;;39.83;28.55;;;10.30;94.90;;;;;;6311190;22;20246;-66
2022/03/17 12:17:05;;;;;;;41.97;29.08;;;10.50;94.10;;;;;;6311500;22;20126;-66
2022/03/17 12:19:39;;;;;;;47.30;28.77;;;10.80;93.30;;;;;;6311785;22;20082;-67
2022/03/17 12:22:13;;;;;;;42.92;27.63;;;11.20;93.10;;;;;;6311371;22;20260;-67
2022/03/17 12:24:45;;;;;;;;;;;11.40;93.10;;;;;;6310738;22;20072;-67
2022/03/17 12:27:19;;;;;;;42.95;30.38;;;11.60;91.90;;;;;;6311680;22;20189;-67
2022/03/17 12:29:49;;;;;;;45.92;28.23;;;11.60;92.10;;;;;;6311247;22;20361;-66
2022/03/17 12:32:22;;;;;;;46.45;30.50;;;11.60;92.80;;;;;;6311076;22;19999;-65
2022/03/17 12:34:53;;;;;;;50.38;30.15;;;11.60;92.50;;;;;;6311135;22;20011;-65
2022/03/17 12:37:21;;;;;;;46.95;29.88;;;11.40;92.80;;;;;;6311267;22;20317;-67
2022/03/17 12:39:49;;;;;;;45.45;27.90;;;11.50;93.30;;;;;;6309608;22;20092;-66
2022/03/17 12:42:20;;;;;;;42.35;28.00;;;11.60;92.80;;;;;;6311525;22;20003;-66
2022/03/17 12:44:54;;;;;;;46.97;29.85;;;11.80;92.50;;;;;;6310943;22;20100;-66
2022/03/17 12:47:22;;;;;;;51.17;32.63;;;12.00;91.20;;;;;;6311438;22;20007;-67
2022/03/17 12:49:50;;;;;;;44.92;29.20;;;11.80;91.50;;;;;;6310933;22;20010;-66
2022/03/17 12:52:21;;;;;;;49.13;30.40;;;11.70;92.40;;;;;;6311013;22;20002;-65
2022/03/17 12:54:51;;;;;;;48.33;32.25;;;11.70;92.60;;;;;;6309339;22;19995;-65
2022/03/17 12:57:18;;;;;;;50.67;30.98;;;11.60;92.40;;;;;;6310847;22;20057;-66
2022/03/17 12:59:44;;;;;;;43.53;30.42;;;11.40;93.40;;;;;;6309111;22;20006;-66
2022/03/17 13:02:17;;;;;;;44.53;28.92;;;11.50;93.10;;;;;;6310423;22;19999;-65